createdAt,value
2019-04-10T00:00:59.289Z,97764.80
2019-04-10T00:03:37.032Z,97765.95
2019-04-10T00:06:08.783Z,97761.09
2019-04-10T00:08:40.393Z,97771.14
2019-04-10T00:11:12.349Z,97765.40
2019-04-10T00:13:44.924Z,97770.86
2019-04-10T00:16:18.454Z,97772.08
2019-04-10T00:18:50.516Z,97772.16
2019-04-10T00:21:22.969Z,97769.19
2019-04-10T00:23:55.535Z,97766.58
2019-04-10T00:26:27.856Z,97766.52
2019-04-10T00:29:00.247Z,97769.07
2019-04-10T00:31:33.857Z,97767.35
2019-04-10T00:34:06.005Z,97769.80
2019-04-10T00:36:38.002Z,97771.45
2019-04-10T00:39:12.563Z,97770.95
2019-04-10T00:41:44.394Z,97775.22
2019-04-10T00:44:16.433Z,97766.19
2019-04-10T00:46:48.711Z,97779.62
2019-04-10T00:49:21.819Z,97774.01
2019-04-10T00:51:53.390Z,97778.41
2019-04-10T00:54:26.106Z,97775.14
2019-04-10T00:56:58.892Z,97772.45
2019-04-10T00:59:30.866Z,97774.30
2019-04-10T01:02:02.608Z,97776.92
2019-04-10T01:04:34.322Z,97781.32
2019-04-10T01:07:07.047Z,97778.25
2019-04-10T01:09:39.648Z,97776.91
2019-04-10T01:12:11.872Z,97775.18
2019-04-10T01:14:43.646Z,97784.51
2019-04-10T01:17:15.856Z,97781.00
2019-04-10T01:19:48.216Z,97777.42
2019-04-10T01:22:21.234Z,97777.34
2019-04-10T01:24:54.412Z,97776.73
2019-04-10T01:27:27.765Z,97770.30
2019-04-10T01:30:00.117Z,97755.05
2019-04-10T01:32:32.755Z,97755.05
2019-04-10T01:35:05.789Z,97774.47
2019-04-10T01:37:48.420Z,97771.47
2019-04-10T01:40:11.521Z,97774.47
2019-04-10T01:42:58.959Z,97775.29
2019-04-10T01:45:17.914Z,97769.22
2019-04-10T01:47:49.732Z,97762.00
2019-04-10T01:50:22.161Z,97767.93
2019-04-10T01:52:55.447Z,97770.22
2019-04-10T01:55:30.300Z,97764.15
2019-04-10T01:58:03.031Z,97775.50
2019-04-10T02:00:35.623Z,97770.06
2019-04-10T02:03:07.245Z,97770.49
2019-04-10T02:05:39.542Z,97775.19
2019-04-10T02:08:14.344Z,97775.03
2019-04-10T02:10:45.298Z,97768.33
2019-04-10T02:13:17.179Z,97773.64
2019-04-10T02:15:50.271Z,97776.76
2019-04-10T02:18:22.064Z,97773.64
2019-04-10T02:20:55.665Z,97782.13
2019-04-10T02:23:28.144Z,97770.80
2019-04-10T02:25:59.741Z,97772.34
2019-04-10T02:28:33.284Z,97771.75
2019-04-10T02:31:07.222Z,97769.50
2019-04-10T02:33:38.917Z,97760.70
2019-04-10T02:36:10.940Z,97765.83
2019-04-10T02:38:57.328Z,97756.95
2019-04-10T02:41:17.408Z,97763.18
2019-04-10T02:43:49.218Z,97762.61
2019-04-10T02:46:21.981Z,97758.31
2019-04-10T02:48:58.015Z,97772.57
2019-04-10T02:51:32.488Z,97774.82
2019-04-10T02:54:05.198Z,97764.95
2019-04-10T02:56:39.116Z,97770.83
2019-04-10T02:59:11.334Z,97770.66
2019-04-10T03:01:44.239Z,97775.47
2019-04-10T03:04:16.509Z,97774.53
2019-04-10T03:06:48.803Z,97775.39
2019-04-10T03:09:40.478Z,97777.55
2019-04-10T03:11:55.436Z,97774.78
2019-04-10T03:14:28.465Z,97775.10
2019-04-10T03:17:00.220Z,97784.50
2019-04-10T03:19:31.810Z,97783.98
2019-04-10T03:22:04.101Z,97794.28
2019-04-10T03:24:35.952Z,97793.45
2019-04-10T03:27:07.543Z,97796.05
2019-04-10T03:29:39.987Z,97798.00
2019-04-10T03:32:36.344Z,97792.05
2019-04-10T03:35:11.090Z,97800.82
2019-04-10T03:37:42.799Z,97798.42
2019-04-10T03:40:15.366Z,97793.90
2019-04-10T03:42:47.443Z,97799.48
2019-04-10T03:45:20.217Z,97800.82
2019-04-10T03:47:52.886Z,97797.91
2019-04-10T03:50:25.826Z,97798.34
2019-04-10T03:52:57.975Z,97800.02
2019-04-10T03:55:29.933Z,97797.05
2019-04-10T03:58:03.427Z,97804.54
2019-04-10T04:00:35.040Z,97799.00
2019-04-10T04:03:08.529Z,97802.42
2019-04-10T04:05:40.194Z,97813.96
2019-04-10T04:08:13.032Z,97815.59
2019-04-10T04:10:44.776Z,97811.80
2019-04-10T04:13:17.479Z,97821.77
2019-04-10T04:15:50.485Z,97821.48
2019-04-10T04:18:22.811Z,97826.10
2019-04-10T04:20:55.066Z,97825.38
2019-04-10T04:23:27.772Z,97839.69
2019-04-10T04:26:00.912Z,97829.70
2019-04-10T04:28:34.463Z,97834.23
2019-04-10T04:31:06.120Z,97827.11
2019-04-10T04:33:38.848Z,97841.20
2019-04-10T04:36:10.556Z,97846.27
2019-04-10T04:38:43.204Z,97842.25
2019-04-10T04:41:15.428Z,97843.05
2019-04-10T04:43:48.716Z,97846.87
2019-04-10T04:46:21.193Z,97848.20
2019-04-10T04:48:53.019Z,97848.62
2019-04-10T04:51:26.067Z,97854.99
2019-04-10T04:53:59.146Z,97857.66
2019-04-10T04:56:31.732Z,97860.61
2019-04-10T04:59:03.643Z,97860.61
2019-04-10T05:01:35.995Z,97862.02
2019-04-10T05:04:09.054Z,97855.92
2019-04-10T05:06:41.738Z,97860.03
2019-04-10T05:09:25.958Z,97858.81
2019-04-10T05:11:46.949Z,97865.26
2019-04-10T05:14:19.589Z,97872.82
2019-04-10T05:16:52.644Z,97870.86
2019-04-10T05:19:25.505Z,97872.26
2019-04-10T05:21:57.534Z,97874.70
2019-04-10T05:24:30.040Z,97868.58
2019-04-10T05:27:02.354Z,97867.66
2019-04-10T05:29:34.585Z,97869.09
2019-04-10T05:32:07.218Z,97869.66
2019-04-10T05:34:40.399Z,97874.76
2019-04-10T05:37:12.124Z,97876.33
2019-04-10T05:39:49.159Z,97870.86
2019-04-10T05:42:18.319Z,97875.71
2019-04-10T05:44:50.269Z,97871.30
2019-04-10T05:47:22.043Z,97878.32
2019-04-10T05:49:53.793Z,97868.06
2019-04-10T05:52:26.679Z,97863.67
2019-04-10T05:54:58.588Z,97871.38
2019-04-10T05:57:30.802Z,97875.75
2019-04-10T06:00:05.126Z,97881.83
2019-04-10T06:02:37.036Z,97882.30
2019-04-10T06:05:09.745Z,97886.61
2019-04-10T06:07:41.649Z,97878.22
2019-04-10T06:10:13.402Z,97882.41
2019-04-10T06:12:46.698Z,97887.34
2019-04-10T06:15:19.106Z,97884.13
2019-04-10T06:17:51.103Z,97880.48
2019-04-10T06:20:23.259Z,97884.08
2019-04-10T06:22:55.847Z,97884.30
2019-04-10T06:25:28.774Z,97882.98
2019-04-10T06:28:01.143Z,97889.25
2019-04-10T06:30:33.996Z,97887.48
2019-04-10T06:33:06.024Z,97889.34
2019-04-10T06:35:37.895Z,97885.45
2019-04-10T06:38:10.609Z,97890.75
2019-04-10T06:40:43.955Z,97882.23
2019-04-10T06:43:15.632Z,97891.03
2019-04-10T06:45:48.228Z,97887.39
2019-04-10T06:48:20.008Z,97886.55
2019-04-10T06:50:51.903Z,97893.02
2019-04-10T06:53:24.711Z,97885.95
2019-04-10T06:55:57.313Z,97892.92
2019-04-10T06:58:30.618Z,97889.13
2019-04-10T07:01:04.136Z,97895.38
2019-04-10T07:03:49.469Z,97894.70
2019-04-10T07:06:16.966Z,97890.16
2019-04-10T07:08:48.857Z,97891.23
2019-04-10T07:11:19.071Z,97895.20
2019-04-10T07:13:51.242Z,97894.69
2019-04-10T07:16:26.630Z,97896.36
2019-04-10T07:18:59.887Z,97904.97
2019-04-10T07:21:35.529Z,97903.86
2019-04-10T07:24:08.304Z,97900.56
2019-04-10T07:26:43.705Z,97904.11
2019-04-10T07:29:19.746Z,97904.39
2019-04-10T07:31:48.566Z,97903.05
2019-04-10T07:34:22.058Z,97902.63
2019-04-10T07:36:54.033Z,97907.62
2019-04-10T07:39:29.229Z,97909.95
2019-04-10T07:41:59.992Z,97913.28
2019-04-10T07:44:32.615Z,97910.02
2019-04-10T07:47:04.759Z,97905.45
2019-04-10T07:49:39.428Z,97919.81
2019-04-10T07:52:10.561Z,97925.36
2019-04-10T07:54:44.610Z,97926.35
2019-04-10T07:57:16.119Z,97928.67
2019-04-10T07:59:47.732Z,97928.67
2019-04-10T08:02:21.163Z,97927.23
2019-04-10T08:04:53.906Z,97926.48
2019-04-10T08:07:30.368Z,97927.95
2019-04-10T08:10:00.062Z,97933.23
2019-04-10T08:12:39.496Z,97931.11
2019-04-10T08:15:06.944Z,97933.88
2019-04-10T08:17:39.067Z,97924.23
2019-04-10T08:20:11.712Z,97934.41
2019-04-10T08:22:44.807Z,97936.25
2019-04-10T08:25:16.723Z,97941.28
2019-04-10T08:27:50.066Z,97937.27
2019-04-10T08:30:22.025Z,97942.06
2019-04-10T08:33:00.753Z,97931.48
2019-04-10T08:35:27.406Z,97935.62
2019-04-10T08:37:59.291Z,97927.30
2019-04-10T08:40:32.089Z,97929.25
2019-04-10T08:43:04.165Z,97919.06
2019-04-10T08:45:44.945Z,97927.64
2019-04-10T08:48:10.080Z,97918.30
2019-04-10T08:50:42.009Z,97924.30
2019-04-10T08:53:13.916Z,97928.87
2019-04-10T08:55:46.237Z,97923.11
2019-04-10T08:58:18.807Z,97922.28
2019-04-10T09:00:52.729Z,97912.03
2019-04-10T09:03:25.021Z,97918.19
2019-04-10T09:05:56.815Z,97911.13
2019-04-10T09:08:28.828Z,97914.56
2019-04-10T09:11:00.988Z,97919.84
2019-04-10T09:13:32.836Z,97918.05
2019-04-10T09:16:04.630Z,97916.34
2019-04-10T09:18:37.215Z,97909.24
2019-04-10T09:21:09.061Z,97907.82
2019-04-10T09:23:47.291Z,97903.63
2019-04-10T09:26:15.537Z,97899.95
2019-04-10T09:28:49.481Z,97899.86
2019-04-10T09:31:21.800Z,97907.49
2019-04-10T09:33:53.753Z,97902.72
2019-04-10T09:36:26.965Z,97906.84
2019-04-10T09:38:59.081Z,97899.72
2019-04-10T09:41:32.027Z,97901.30
2019-04-10T09:44:04.528Z,97905.13
2019-04-10T09:46:37.445Z,97901.11
2019-04-10T09:49:09.539Z,97894.80
2019-04-10T09:51:42.457Z,97901.78
2019-04-10T09:54:14.124Z,97889.52
2019-04-10T09:56:46.353Z,97892.33
2019-04-10T09:59:18.094Z,97896.50
2019-04-10T10:01:51.415Z,97895.44
2019-04-10T10:04:23.658Z,97888.97
2019-04-10T10:06:55.809Z,97882.50
2019-04-10T10:09:29.256Z,97879.94
2019-04-10T10:12:01.740Z,97887.47
2019-04-10T10:14:33.438Z,97886.91
2019-04-10T10:17:06.537Z,97876.50
2019-04-10T10:19:40.620Z,97881.98
2019-04-10T10:22:14.697Z,97876.15
2019-04-10T10:24:46.872Z,97869.23
2019-04-10T10:27:19.986Z,97872.27
2019-04-10T10:29:53.556Z,97869.38
2019-04-10T10:32:25.299Z,97862.14
2019-04-10T10:34:58.989Z,97861.23
2019-04-10T10:37:30.574Z,97861.47
2019-04-10T10:40:03.455Z,97861.47
2019-04-10T10:42:38.503Z,97862.97
2019-04-10T10:45:12.504Z,97854.67
2019-04-10T10:47:44.329Z,97846.44
2019-04-10T10:50:17.181Z,97856.03
2019-04-10T10:52:50.078Z,97856.98
2019-04-10T10:55:23.281Z,97863.92
2019-04-10T10:57:56.174Z,97859.40
2019-04-10T11:00:29.321Z,97850.47
2019-04-10T11:03:02.249Z,97856.32
2019-04-10T11:05:37.188Z,97863.94
2019-04-10T11:08:08.984Z,97859.34
2019-04-10T11:10:41.314Z,97860.68
2019-04-10T11:13:13.349Z,97868.20
2019-04-10T11:15:45.960Z,97869.16
2019-04-10T11:18:19.480Z,97874.13
2019-04-10T11:20:52.287Z,97883.89
2019-04-10T11:23:24.558Z,97874.08
2019-04-10T11:25:57.699Z,97870.36
2019-04-10T11:31:03.264Z,97876.30
2019-04-10T11:33:37.291Z,97883.62
2019-04-10T11:36:09.830Z,97883.89
2019-04-10T11:38:42.894Z,97880.72
2019-04-10T11:41:18.915Z,97874.40
2019-04-10T11:43:52.602Z,97879.38
2019-04-10T11:46:28.290Z,97879.25
2019-04-10T11:48:57.806Z,97876.34
2019-04-10T11:54:05.371Z,97877.15
2019-04-10T11:56:38.375Z,97880.75
2019-04-10T11:59:12.356Z,97873.98
2019-04-10T12:01:46.206Z,97876.45
2019-04-10T12:04:19.554Z,97883.96
2019-04-10T12:06:54.054Z,97890.86
2019-04-10T12:10:16.821Z,97881.27
2019-04-10T12:11:57.391Z,97888.11
2019-04-10T12:14:29.986Z,97880.52
2019-04-10T12:17:01.915Z,97879.88
2019-04-10T12:19:33.589Z,97886.55
2019-04-10T12:22:05.917Z,97883.39
2019-04-10T12:24:38.528Z,97884.77
2019-04-10T12:27:10.567Z,97885.54
2019-04-10T12:29:43.887Z,97885.64
2019-04-10T12:32:16.659Z,97891.39
2019-04-10T12:34:49.018Z,97887.17
2019-04-10T12:37:21.011Z,97882.53
2019-04-10T12:39:53.028Z,97884.84
2019-04-10T12:42:24.559Z,97891.92
2019-04-10T12:44:56.386Z,97880.78
2019-04-10T12:47:28.525Z,97882.13
2019-04-10T12:50:00.327Z,97890.09
2019-04-10T12:52:34.571Z,97879.94
2019-04-10T12:55:06.677Z,97883.88
2019-04-10T12:57:39.157Z,97875.59
2019-04-10T13:00:15.968Z,97881.86
2019-04-10T13:02:47.778Z,97878.36
2019-04-10T13:05:20.911Z,97878.08
2019-04-10T13:07:53.976Z,97869.98
2019-04-10T13:10:25.915Z,97873.98
2019-04-10T13:12:57.762Z,97878.65
2019-04-10T13:15:31.888Z,97862.56
2019-04-10T13:18:03.936Z,97864.23
2019-04-10T13:20:35.746Z,97863.89
2019-04-10T13:23:07.237Z,97869.52
2019-04-10T13:25:39.161Z,97870.45
2019-04-10T13:28:11.570Z,97862.81
2019-04-10T13:30:48.879Z,97870.30
2019-04-10T13:33:17.313Z,97877.22
2019-04-10T13:35:49.496Z,97877.22
2019-04-10T13:38:27.628Z,97877.64
2019-04-10T13:40:54.840Z,97872.97
2019-04-10T13:43:27.660Z,97878.47
2019-04-10T13:46:00.832Z,97885.23
2019-04-10T13:48:33.445Z,97874.82
2019-04-10T13:51:05.886Z,97872.94
2019-04-10T13:53:38.306Z,97883.03
2019-04-10T13:56:09.826Z,97877.93
2019-04-10T13:58:42.617Z,97885.22
2019-04-10T14:01:19.657Z,97873.73
2019-04-10T14:03:52.437Z,97882.47
2019-04-10T14:06:25.448Z,97875.32
2019-04-10T14:09:12.235Z,97880.30
2019-04-10T14:11:30.613Z,97874.99
2019-04-10T14:14:02.523Z,97874.23
2019-04-10T14:16:35.043Z,97876.31
2019-04-10T14:19:07.738Z,97882.95
2019-04-10T14:21:40.854Z,97878.69
2019-04-10T14:24:13.247Z,97885.81
2019-04-10T14:27:09.101Z,97882.42
2019-04-10T14:29:40.973Z,97884.83
2019-04-10T14:32:18.449Z,97883.18
2019-04-10T14:34:50.544Z,97874.44
2019-04-10T14:37:23.267Z,97876.58
2019-04-10T14:39:55.781Z,97880.90
2019-04-10T14:42:28.533Z,97884.30
2019-04-10T14:45:01.394Z,97892.12
2019-04-10T14:47:34.359Z,97889.91
2019-04-10T14:50:07.526Z,97881.53
2019-04-10T14:52:39.278Z,97883.25
2019-04-10T14:55:12.455Z,97885.98
2019-04-10T14:57:45.490Z,97889.84
2019-04-10T15:00:31.163Z,97888.76
2019-04-10T15:03:04.358Z,97884.34
2019-04-10T15:05:46.487Z,97893.30
2019-04-10T15:08:09.935Z,97896.08
2019-04-10T15:10:43.948Z,97894.95
2019-04-10T15:13:19.740Z,97888.95
2019-04-10T15:15:50.391Z,97888.95
2019-04-10T15:18:22.563Z,97888.72
2019-04-10T15:20:54.457Z,97888.16
2019-04-10T15:23:25.995Z,97884.77
2019-04-10T15:25:59.881Z,97884.77
2019-04-10T15:28:33.923Z,97888.66
2019-04-10T15:31:06.840Z,97890.80
2019-04-10T15:33:39.435Z,97881.95
2019-04-10T15:36:11.601Z,97882.75
2019-04-10T15:38:44.361Z,97881.63
2019-04-10T15:41:18.979Z,97884.44
2019-04-10T15:43:51.738Z,97885.48
2019-04-10T15:46:24.794Z,97892.25
2019-04-10T15:48:56.919Z,97899.88
2019-04-10T15:51:30.020Z,97903.53
2019-04-10T15:54:02.042Z,97896.80
2019-04-10T15:56:34.140Z,97895.38
2019-04-10T15:59:06.263Z,97894.52
2019-04-10T16:01:37.886Z,97901.09
2019-04-10T16:04:09.866Z,97907.91
2019-04-10T16:06:41.926Z,97904.15
2019-04-10T16:09:15.067Z,97916.70
2019-04-10T16:12:14.618Z,97916.14
2019-04-10T16:14:46.629Z,97917.98
2019-04-10T16:17:41.945Z,97918.28
2019-04-10T16:20:33.611Z,97931.18
2019-04-10T16:23:14.907Z,97925.63
2019-04-10T16:25:52.389Z,97926.09
2019-04-10T16:28:24.133Z,97916.37
2019-04-10T16:30:57.202Z,97930.34
2019-04-10T16:33:29.422Z,97923.67
2019-04-10T16:36:03.078Z,97933.36
2019-04-10T16:38:34.864Z,97935.20
2019-04-10T16:41:06.651Z,97929.67
2019-04-10T16:43:38.349Z,97931.82
2019-04-10T16:46:11.121Z,97937.12
2019-04-10T16:48:44.210Z,97935.50
2019-04-10T16:51:17.242Z,97940.80
2019-04-10T16:53:49.932Z,97944.59
2019-04-10T16:56:25.428Z,97934.19
2019-04-10T16:58:58.474Z,97934.48
2019-04-10T17:01:30.950Z,97938.58
2019-04-10T17:04:05.021Z,97933.92
2019-04-10T17:06:36.953Z,97935.99
2019-04-10T17:09:12.254Z,97934.33
2019-04-10T17:11:45.134Z,97938.05
2019-04-10T17:14:17.547Z,97943.23
2019-04-10T17:16:50.314Z,97940.67
2019-04-10T17:19:23.598Z,97953.17
2019-04-10T17:21:56.877Z,97957.72
2019-04-10T17:24:29.302Z,97954.22
2019-04-10T17:27:01.503Z,97961.99
2019-04-10T17:29:33.591Z,97969.53
2019-04-10T17:32:06.981Z,97961.65
2019-04-10T17:34:38.998Z,97963.88
2019-04-10T17:37:11.931Z,97963.70
2019-04-10T17:39:43.921Z,97968.72
2019-04-10T17:42:16.582Z,97971.11
2019-04-10T17:44:49.969Z,97965.67
2019-04-10T17:47:22.877Z,97976.66
2019-04-10T17:49:55.946Z,97977.05
2019-04-10T17:52:28.107Z,97987.89
2019-04-10T17:55:00.886Z,97989.16
2019-04-10T17:57:38.552Z,97993.12
2019-04-10T18:00:15.890Z,97998.09
2019-04-10T18:02:48.556Z,98000.27
2019-04-10T18:05:20.511Z,97996.73
2019-04-10T18:07:52.876Z,98005.71
2019-04-10T18:10:34.376Z,98003.14
2019-04-10T18:13:00.879Z,97997.74
2019-04-10T18:15:35.826Z,98007.98
2019-04-10T18:18:08.303Z,98009.33
2019-04-10T18:20:42.236Z,98006.09
2019-04-10T18:23:15.516Z,98002.00
2019-04-10T18:25:47.337Z,98009.45
2019-04-10T18:28:21.299Z,98021.66
2019-04-10T18:30:54.486Z,98019.73
2019-04-10T18:33:26.533Z,98020.04
2019-04-10T18:35:59.462Z,98015.16
2019-04-10T18:38:31.741Z,98019.22
2019-04-10T18:41:06.876Z,98022.14
2019-04-10T18:43:37.740Z,98025.92
2019-04-10T18:46:13.392Z,98029.31
2019-04-10T18:48:45.596Z,98028.06
2019-04-10T18:51:16.365Z,98033.09
2019-04-10T18:53:49.288Z,98038.30
2019-04-10T18:56:22.218Z,98039.42
2019-04-10T18:59:06.726Z,98041.00
2019-04-10T19:01:56.082Z,98039.95
2019-04-10T19:04:41.747Z,98041.25
2019-04-10T19:07:15.382Z,98042.08
2019-04-10T19:09:47.235Z,98044.70
2019-04-10T19:12:19.301Z,98044.52
2019-04-10T19:14:51.144Z,98048.00
2019-04-10T19:17:23.068Z,98046.12
2019-04-10T19:19:56.754Z,98045.83
2019-04-10T19:22:28.574Z,98046.61
2019-04-10T19:25:00.744Z,98050.83
2019-04-10T19:27:32.407Z,98039.45
2019-04-10T19:30:06.699Z,98050.87
2019-04-10T19:32:38.792Z,98051.34
2019-04-10T19:35:10.902Z,98047.03
2019-04-10T19:37:43.325Z,98045.25
2019-04-10T19:40:15.909Z,98045.94
2019-04-10T19:42:47.742Z,98045.41
2019-04-10T19:45:19.569Z,98042.84
2019-04-10T19:47:52.721Z,98042.42
2019-04-10T19:50:25.533Z,98040.45
2019-04-10T19:52:57.163Z,98047.09
2019-04-10T19:55:29.626Z,98047.37
2019-04-10T19:58:01.764Z,98050.95
2019-04-10T20:00:36.753Z,98053.18
2019-04-10T20:03:08.653Z,98043.63
2019-04-10T20:05:41.513Z,98039.41
2019-04-10T20:08:13.281Z,98046.44
2019-04-10T20:10:45.705Z,98048.20
2019-04-10T20:13:18.703Z,98047.73
2019-04-10T20:15:50.958Z,98042.11
2019-04-10T20:18:23.002Z,98045.34
2019-04-10T20:20:55.464Z,98049.08
2019-04-10T20:23:27.898Z,98041.98
2019-04-10T20:26:01.353Z,98050.90
2019-04-10T20:28:33.159Z,98052.03
2019-04-10T20:31:07.009Z,98056.34
2019-04-10T20:33:38.911Z,98062.52
2019-04-10T20:36:11.058Z,98065.69
2019-04-10T20:38:43.072Z,98068.11
2019-04-10T20:41:16.315Z,98071.85
2019-04-10T20:43:49.584Z,98067.75
2019-04-10T20:46:22.250Z,98064.28
2019-04-10T20:48:55.075Z,98061.83
2019-04-10T20:51:26.864Z,98067.39
2019-04-10T20:53:58.625Z,98071.08
2019-04-10T20:56:30.697Z,98068.74
2019-04-10T20:59:03.506Z,98066.67
2019-04-10T21:01:35.186Z,98071.96
2019-04-10T21:04:07.849Z,98078.19
2019-04-10T21:06:41.934Z,98076.53
2019-04-10T21:09:13.459Z,98075.18
2019-04-10T21:11:58.059Z,98083.00
2019-04-10T21:14:21.103Z,98082.12
2019-04-10T21:16:53.002Z,98079.22
2019-04-10T21:19:24.925Z,98075.53
2019-04-10T21:21:57.512Z,98077.12
2019-04-10T21:24:31.545Z,98076.52
2019-04-10T21:27:03.720Z,98081.80
2019-04-10T21:30:07.271Z,98076.25
2019-04-10T21:33:12.127Z,98080.81
2019-04-10T21:35:45.565Z,98079.14
2019-04-10T21:38:17.660Z,98081.20
2019-04-10T21:40:49.503Z,98095.27
2019-04-10T21:43:22.787Z,98095.39
2019-04-10T21:45:55.375Z,98093.16
2019-04-10T21:48:27.562Z,98089.88
2019-04-10T21:51:00.582Z,98087.94
2019-04-10T21:53:34.091Z,98085.61
2019-04-10T21:56:08.510Z,98099.04
2019-04-10T21:58:40.853Z,98101.31
2019-04-10T22:01:13.498Z,98097.59
2019-04-10T22:03:45.621Z,98099.31
2019-04-10T22:06:49.433Z,98100.14
2019-04-10T22:09:34.897Z,98101.13
2019-04-10T22:12:25.961Z,98096.03
2019-04-10T22:14:54.041Z,98100.75
2019-04-10T22:17:26.814Z,98088.63
2019-04-10T22:19:59.443Z,98086.53
2019-04-10T22:22:32.957Z,98093.55
2019-04-10T22:25:05.341Z,98089.81
2019-04-10T22:27:37.455Z,98101.37
2019-04-10T22:30:10.452Z,98088.98
2019-04-10T22:32:42.842Z,98087.88
2019-04-10T22:35:15.247Z,98091.41
2019-04-10T22:37:48.336Z,98088.13
2019-04-10T22:40:20.160Z,98087.09
2019-04-10T22:42:53.264Z,98078.97
2019-04-10T22:45:29.227Z,98086.97
2019-04-10T22:48:01.738Z,98085.68
2019-04-10T22:50:34.511Z,98079.00
2019-04-10T22:53:06.856Z,98078.94
2019-04-10T22:55:42.614Z,98085.10
2019-04-10T22:58:14.967Z,98075.52
2019-04-10T23:00:48.450Z,98078.76
2019-04-10T23:03:20.331Z,98079.28
2019-04-10T23:05:53.069Z,98080.07
2019-04-10T23:08:25.398Z,98081.20
2019-04-10T23:10:57.454Z,98080.61
2019-04-10T23:13:30.130Z,98076.33
2019-04-10T23:16:02.041Z,98084.35
2019-04-10T23:18:33.929Z,98076.91
2019-04-10T23:21:06.101Z,98075.83
2019-04-10T23:23:39.025Z,98082.81
2019-04-10T23:26:11.130Z,98069.86
2019-04-10T23:28:43.999Z,98064.47
2019-04-10T23:31:15.632Z,98063.97
2019-04-10T23:33:48.272Z,98064.50
2019-04-10T23:36:20.269Z,98069.75
2019-04-10T23:38:52.170Z,98069.68
2019-04-10T23:41:25.479Z,98066.22
2019-04-10T23:43:57.793Z,98067.30
2019-04-10T23:46:30.456Z,98068.27
2019-04-10T23:49:03.937Z,98082.77
2019-04-10T23:51:39.098Z,98072.37
2019-04-10T23:54:11.193Z,98071.04
2019-04-10T23:56:44.785Z,98081.95
2019-04-10T23:59:18.248Z,98077.84
